Time;durP1;ratioP1;P1;durP2;ratioP2;P2;SDS_P1;SDS_P2;PMS_P1;PMS_P2;Temp;Humidity;BMP_temperature;BMP_pressure;BME280_temperature;BME280_humidity;BME280_pressure;Samples;Min_cycle;Max_cycle;Signal;HPM_P1;HPM_P2
2023/07/05 00:00:15;;;;;;;1.27;1.17;;;;;;;;;;5034058;28;20748;-82
2023/07/05 00:02:42;;;;;;;1.48;1.25;;;;;;;;;;5034446;28;20584;-82
2023/07/05 00:05:10;;;;;;;3.65;1.40;;;;;;;;;;5034129;28;20257;-82
2023/07/05 00:07:37;;;;;;;1.40;1.30;;;;;;;;;;5034546;28;20218;-82
2023/07/05 00:10:05;;;;;;;1.20;1.08;;;;;;;;;;5033640;28;20261;-82
2023/07/05 00:12:32;;;;;;;3.08;1.48;;;;;;;;;;5034030;28;20211;-82
2023/07/05 00:14:59;;;;;;;1.48;1.38;;;;;;;;;;5033581;28;20281;-82
2023/07/05 00:17:26;;;;;;;1.92;1.40;;;;;;;;;;5033643;28;20211;-82
2023/07/05 00:19:54;;;;;;;1.63;1.52;;;;;;;;;;5033110;28;20230;-82
2023/07/05 00:22:22;;;;;;;1.88;1.50;;;;;;;;;;5033928;28;20567;-83
2023/07/05 00:24:53;;;;;;;1.48;1.38;;;;;;;;;;5033296;28;20238;-82
2023/07/05 00:27:20;;;;;;;3.80;1.23;;;;;;;;;;5034059;28;20214;-83
2023/07/05 00:29:47;;;;;;;1.73;1.38;;;;;;;;;;5033169;28;20234;-83
2023/07/05 00:32:14;;;;;;;1.73;1.50;;;;;;;;;;5034060;28;20207;-83
2023/07/05 00:34:41;;;;;;;2.15;1.20;;;;;;;;;;5033302;28;20231;-84
2023/07/05 00:37:08;;;;;;;2.75;1.77;;;;;;;;;;5033534;28;20210;-84
2023/07/05 00:39:36;;;;;;;4.60;2.28;;;;;;;;;;5032999;28;20230;-84
2023/07/05 00:42:05;;;;;;;2.63;1.70;;;;;;;;;;5033694;28;20206;-84
2023/07/05 00:44:32;;;;;;;1.92;1.52;;;;;;;;;;5032869;28;20241;-83
2023/07/05 00:47:01;;;;;;;4.25;1.90;;;;;;;;;;5033490;28;20692;-84
2023/07/05 00:49:29;;;;;;;2.35;1.63;;;;;;;;;;5032635;28;20244;-84
2023/07/05 00:51:58;;;;;;;4.07;1.60;;;;;;;;;;5033413;28;20695;-84
2023/07/05 00:54:27;;;;;;;1.92;1.50;;;;;;;;;;5033053;28;20235;-84
2023/07/05 00:56:57;;;;;;;3.65;1.80;;;;;;;;;;5033279;28;20225;-85
2023/07/05 00:59:26;;;;;;;1.88;1.50;;;;;;;;;;5032621;28;20238;-82
2023/07/05 01:01:53;;;;;;;2.70;1.52;;;;;;;;;;5032726;28;20681;-82
2023/07/05 01:04:21;;;;;;;3.97;1.50;;;;;;;;;;5031846;28;20242;-83
2023/07/05 01:06:48;;;;;;;3.47;1.77;;;;;;;;;;5028205;28;20210;-82
2023/07/05 01:09:15;;;;;;;3.25;1.60;;;;;;;;;;5035263;28;20250;-82
2023/07/05 01:11:48;;;;;;;2.47;1.60;;;;;;;;;;5035651;28;20214;-82
2023/07/05 01:14:20;;;;;;;3.40;1.95;;;;;;;;;;5033607;28;20235;-82
2023/07/05 01:16:55;;;;;;;4.55;2.10;;;;;;;;;;5032901;28;20213;-81
2023/07/05 01:19:33;;;;;;;5.25;1.75;;;;;;;;;;5032277;28;20716;-81
2023/07/05 01:22:02;;;;;;;3.53;1.88;;;;;;;;;;5033128;28;20191;-83
2023/07/05 01:24:59;;;;;;;5.35;1.73;;;;;;;;;;5032538;28;20321;-83
2023/07/05 01:27:44;;;;;;;3.28;1.88;;;;;;;;;;5030497;28;20713;-85
2023/07/05 01:30:32;;;;;;;3.83;1.90;;;;;;;;;;5031980;28;20234;-85
2023/07/05 01:33:02;;;;;;;5.65;2.00;;;;;;;;;;5032707;28;20597;-85
2023/07/05 01:35:33;;;;;;;2.88;1.40;;;;;;;;;;5033096;28;20249;-85
2023/07/05 01:38:00;;;;;;;3.72;1.63;;;;;;;;;;5031757;28;20202;-85
2023/07/05 01:40:45;;;;;;;2.05;1.40;;;;;;;;;;5032823;28;20222;-85
2023/07/05 01:43:13;;;;;;;2.20;1.50;;;;;;;;;;5032244;28;20774;-83
2023/07/05 01:45:53;;;;;;;9.45;1.45;;;;;;;;;;5032434;28;20685;-82
2023/07/05 01:48:25;;;;;;;3.22;1.65;;;;;;;;;;5031396;28;20230;-83
2023/07/05 01:50:56;;;;;;;3.10;1.50;;;;;;;;;;5032547;28;20218;-83
2023/07/05 01:53:26;;;;;;;1.55;1.42;;;;;;;;;;5031840;28;20603;-82
2023/07/05 01:55:56;;;;;;;3.00;2.25;;;;;;;;;;5032240;28;20210;-83
2023/07/05 01:58:28;;;;;;;3.45;2.08;;;;;;;;;;5031537;28;20612;-83
2023/07/05 02:00:57;;;;;;;3.50;1.60;;;;;;;;;;5032232;28;20207;-83
2023/07/05 02:03:26;;;;;;;2.40;1.70;;;;;;;;;;5031713;28;20230;-85
2023/07/05 02:05:54;;;;;;;2.47;1.80;;;;;;;;;;5032184;28;20206;-85
2023/07/05 02:08:26;;;;;;;8.32;1.92;;;;;;;;;;5031388;28;20696;-85
2023/07/05 02:10:53;;;;;;;2.47;1.50;;;;;;;;;;5032460;28;20296;-85
2023/07/05 02:13:20;;;;;;;1.95;1.50;;;;;;;;;;5031979;28;20259;-84
2023/07/05 02:15:50;;;;;;;2.03;1.42;;;;;;;;;;5031941;28;20689;-85
2023/07/05 02:18:17;;;;;;;3.17;1.75;;;;;;;;;;5031316;28;20230;-85
2023/07/05 02:20:45;;;;;;;3.47;1.50;;;;;;;;;;5031865;28;20203;-85
2023/07/05 02:23:12;;;;;;;3.53;1.50;;;;;;;;;;5031510;28;20588;-85
2023/07/05 02:25:40;;;;;;;2.33;1.80;;;;;;;;;;5031626;28;20314;-83
2023/07/05 02:28:07;;;;;;;3.70;2.00;;;;;;;;;;5031303;28;20245;-83
2023/07/05 02:30:36;;;;;;;3.00;1.70;;;;;;;;;;5031846;28;20321;-82
2023/07/05 02:33:03;;;;;;;1.55;1.40;;;;;;;;;;5031732;28;20230;-82
2023/07/05 02:35:30;;;;;;;2.22;2.00;;;;;;;;;;5031605;28;20206;-82
2023/07/05 02:37:58;;;;;;;2.78;1.95;;;;;;;;;;5031246;28;20214;-83
2023/07/05 02:40:25;;;;;;;13.57;2.00;;;;;;;;;;5031650;28;20253;-82
2023/07/05 02:42:52;;;;;;;3.97;1.92;;;;;;;;;;5031361;28;20206;-81
2023/07/05 02:45:19;;;;;;;3.35;2.13;;;;;;;;;;5031709;28;20222;-82
2023/07/05 02:47:46;;;;;;;2.95;2.13;;;;;;;;;;5030737;28;20210;-82
2023/07/05 02:50:17;;;;;;;11.20;2.35;;;;;;;;;;5031563;28;20779;-82
2023/07/05 02:52:44;;;;;;;2.92;1.92;;;;;;;;;;5031312;28;20274;-81
2023/07/05 02:55:12;;;;;;;5.85;2.53;;;;;;;;;;5031448;28;20206;-82
2023/07/05 02:57:39;;;;;;;3.25;2.20;;;;;;;;;;5030769;28;20687;-82
2023/07/05 03:00:07;;;;;;;2.87;2.03;;;;;;;;;;5034236;28;20223;-82
2023/07/05 03:02:34;;;;;;;2.47;2.03;;;;;;;;;;5035624;28;20211;-82
2023/07/05 03:05:07;;;;;;;2.17;2.03;;;;;;;;;;5034964;28;20239;-82
2023/07/05 03:07:36;;;;;;;2.25;1.90;;;;;;;;;;5035262;28;20213;-81
2023/07/05 03:10:03;;;;;;;5.25;1.98;;;;;;;;;;5034765;28;20246;-81
2023/07/05 03:12:32;;;;;;;2.65;2.20;;;;;;;;;;5035311;28;20214;-82
2023/07/05 03:14:59;;;;;;;3.42;1.95;;;;;;;;;;5034740;28;20238;-81
2023/07/05 03:17:26;;;;;;;2.97;1.88;;;;;;;;;;5035175;28;20245;-81
2023/07/05 03:19:56;;;;;;;2.03;1.83;;;;;;;;;;5034533;28;20248;-81
2023/07/05 03:22:23;;;;;;;2.77;1.80;;;;;;;;;;5035095;28;20214;-81
2023/07/05 03:24:51;;;;;;;3.80;2.33;;;;;;;;;;5034644;28;20729;-81
2023/07/05 03:27:18;;;;;;;2.80;1.97;;;;;;;;;;5034984;28;20681;-81
2023/07/05 03:29:47;;;;;;;1.70;1.60;;;;;;;;;;5034214;28;20238;-81
2023/07/05 03:32:14;;;;;;;1.88;1.77;;;;;;;;;;5034875;28;20688;-81
2023/07/05 03:34:41;;;;;;;3.20;2.05;;;;;;;;;;5034298;28;20234;-81
2023/07/05 03:37:08;;;;;;;1.80;1.70;;;;;;;;;;5034912;28;20229;-80
2023/07/05 03:39:35;;;;;;;1.60;1.50;;;;;;;;;;5034257;28;20253;-80
2023/07/05 03:42:03;;;;;;;2.55;1.90;;;;;;;;;;5034686;28;20215;-80
2023/07/05 03:44:30;;;;;;;2.42;2.10;;;;;;;;;;5034314;28;20238;-80
2023/07/05 03:46:58;;;;;;;1.70;1.42;;;;;;;;;;5034443;28;20215;-80
2023/07/05 03:49:25;;;;;;;2.88;1.80;;;;;;;;;;5033734;28;20246;-80
2023/07/05 03:51:52;;;;;;;2.93;2.13;;;;;;;;;;5034517;28;20226;-80
2023/07/05 03:54:19;;;;;;;2.90;1.70;;;;;;;;;;5034183;28;20234;-80
2023/07/05 03:56:46;;;;;;;2.10;1.90;;;;;;;;;;5034232;28;20693;-79
2023/07/05 03:59:13;;;;;;;3.67;1.70;;;;;;;;;;5033581;28;20234;-79
2023/07/05 04:01:40;;;;;;;2.13;1.83;;;;;;;;;;5034168;28;20697;-82
2023/07/05 04:04:09;;;;;;;3.10;1.80;;;;;;;;;;5033803;28;20241;-82
2023/07/05 04:06:36;;;;;;;2.73;1.70;;;;;;;;;;5033974;28;20558;-82
2023/07/05 04:09:03;;;;;;;3.00;2.10;;;;;;;;;;5033312;28;20697;-81
2023/07/05 04:11:31;;;;;;;3.07;1.97;;;;;;;;;;5033055;28;20227;-82
2023/07/05 04:13:58;;;;;;;2.87;1.60;;;;;;;;;;5033620;28;20234;-80
2023/07/05 04:16:26;;;;;;;2.67;1.80;;;;;;;;;;5034060;28;20217;-80
2023/07/05 04:18:53;;;;;;;1.60;1.50;;;;;;;;;;5033347;28;20242;-79
2023/07/05 04:21:22;;;;;;;2.73;1.67;;;;;;;;;;5034089;28;20302;-80
2023/07/05 04:23:49;;;;;;;2.07;1.60;;;;;;;;;;5033291;28;20740;-82
2023/07/05 04:26:17;;;;;;;1.90;1.80;;;;;;;;;;5034101;28;20207;-80
2023/07/05 04:28:45;;;;;;;4.30;1.70;;;;;;;;;;5032928;28;20739;-82
2023/07/05 04:31:15;;;;;;;2.73;1.73;;;;;;;;;;5033602;28;20227;-82
2023/07/05 04:33:42;;;;;;;1.67;1.57;;;;;;;;;;5033312;28;20238;-82
2023/07/05 04:36:09;;;;;;;2.53;1.90;;;;;;;;;;5033751;28;20294;-83
2023/07/05 04:38:37;;;;;;;5.72;2.03;;;;;;;;;;5032589;28;20242;-82
2023/07/05 04:41:04;;;;;;;2.20;1.90;;;;;;;;;;5033342;28;20213;-80
2023/07/05 04:43:31;;;;;;;1.63;1.53;;;;;;;;;;5032661;28;20234;-79
2023/07/05 04:46:00;;;;;;;4.45;1.85;;;;;;;;;;5033118;28;20218;-80
2023/07/05 04:48:28;;;;;;;2.93;1.80;;;;;;;;;;5032288;28;20243;-80
2023/07/05 04:50:57;;;;;;;1.80;1.70;;;;;;;;;;5033010;28;20720;-81
2023/07/05 04:53:25;;;;;;;1.87;1.67;;;;;;;;;;5032596;28;20230;-82
2023/07/05 04:55:54;;;;;;;1.70;1.60;;;;;;;;;;5033067;28;20210;-82
2023/07/05 04:58:23;;;;;;;2.67;1.95;;;;;;;;;;5032484;28;20724;-82
2023/07/05 05:00:51;;;;;;;3.63;1.60;;;;;;;;;;5033194;28;20207;-83
2023/07/05 05:03:18;;;;;;;3.83;2.17;;;;;;;;;;5032868;28;20231;-83
2023/07/05 05:05:46;;;;;;;2.20;2.03;;;;;;;;;;5033223;28;20207;-82
2023/07/05 05:08:13;;;;;;;3.33;1.90;;;;;;;;;;5032534;28;20230;-81
2023/07/05 05:10:40;;;;;;;1.93;1.80;;;;;;;;;;5033041;28;20230;-80
2023/07/05 05:13:09;;;;;;;1.90;1.60;;;;;;;;;;5032549;28;20230;-80
2023/07/05 05:15:37;;;;;;;5.80;2.08;;;;;;;;;;5032808;28;20695;-80
2023/07/05 05:18:05;;;;;;;2.17;1.97;;;;;;;;;;5032092;28;20238;-80
2023/07/05 05:20:32;;;;;;;4.95;2.03;;;;;;;;;;5032579;28;20215;-80
2023/07/05 05:22:59;;;;;;;2.67;2.30;;;;;;;;;;5031297;28;20238;-80
2023/07/05 05:25:26;;;;;;;2.85;1.90;;;;;;;;;;5032727;28;20561;-83
2023/07/05 05:27:53;;;;;;;3.45;2.00;;;;;;;;;;5032207;28;20229;-81
2023/07/05 05:30:22;;;;;;;3.90;1.77;;;;;;;;;;5032956;28;20241;-81
2023/07/05 05:32:49;;;;;;;2.70;2.00;;;;;;;;;;5032486;28;20235;-81
2023/07/05 05:35:17;;;;;;;1.60;1.50;;;;;;;;;;5032628;28;20211;-81
2023/07/05 05:37:44;;;;;;;2.22;1.80;;;;;;;;;;5032175;28;20285;-81
2023/07/05 05:40:11;;;;;;;2.45;2.22;;;;;;;;;;5032517;28;20229;-81
2023/07/05 05:42:39;;;;;;;2.67;2.00;;;;;;;;;;5032475;28;20207;-79
2023/07/05 05:45:06;;;;;;;3.05;1.90;;;;;;;;;;5031999;28;20594;-80
2023/07/05 05:47:36;;;;;;;5.57;2.70;;;;;;;;;;5032565;28;20599;-81
2023/07/05 05:50:03;;;;;;;2.40;2.20;;;;;;;;;;5031766;28;20238;-82
2023/07/05 05:52:30;;;;;;;4.82;2.50;;;;;;;;;;5031992;28;20226;-81
2023/07/05 05:54:57;;;;;;;3.45;2.30;;;;;;;;;;5031658;28;20234;-81
2023/07/05 05:57:24;;;;;;;4.13;2.30;;;;;;;;;;5032017;28;20214;-82
2023/07/05 05:59:51;;;;;;;6.30;2.40;;;;;;;;;;5031307;28;20238;-81
2023/07/05 06:02:19;;;;;;;7.13;2.00;;;;;;;;;;5032065;28;20206;-82
2023/07/05 06:04:47;;;;;;;2.30;2.10;;;;;;;;;;5031589;28;20324;-81
2023/07/05 06:07:14;;;;;;;3.00;2.33;;;;;;;;;;5031986;28;20201;-80
2023/07/05 06:09:45;;;;;;;2.40;2.20;;;;;;;;;;5031295;28;20463;-80
2023/07/05 06:12:12;;;;;;;2.92;2.05;;;;;;;;;;5032125;28;20234;-81
2023/07/05 06:14:40;;;;;;;2.50;2.20;;;;;;;;;;5031404;28;20234;-80
2023/07/05 06:17:07;;;;;;;2.17;1.97;;;;;;;;;;5031824;28;20202;-81
2023/07/05 06:19:34;;;;;;;3.63;2.80;;;;;;;;;;5031089;28;20234;-80
2023/07/05 06:22:02;;;;;;;2.93;2.00;;;;;;;;;;5031998;28;20286;-81
2023/07/05 06:24:31;;;;;;;2.47;2.17;;;;;;;;;;5031468;28;20258;-80
2023/07/05 06:26:59;;;;;;;1.87;1.73;;;;;;;;;;5032042;28;20210;-80
2023/07/05 06:29:26;;;;;;;2.50;2.23;;;;;;;;;;5031172;28;20250;-80
2023/07/05 06:31:53;;;;;;;2.90;2.20;;;;;;;;;;5031837;28;20615;-80
2023/07/05 06:34:20;;;;;;;2.50;2.30;;;;;;;;;;5030808;28;20720;-80
2023/07/05 06:36:47;;;;;;;4.53;2.30;;;;;;;;;;5031502;28;20211;-79
2023/07/05 06:39:15;;;;;;;2.80;2.50;;;;;;;;;;5031123;28;20241;-80
2023/07/05 06:41:42;;;;;;;2.00;1.57;;;;;;;;;;5031535;28;20206;-79
2023/07/05 06:44:10;;;;;;;2.10;1.90;;;;;;;;;;5031138;28;20234;-80
2023/07/05 06:46:37;;;;;;;3.97;2.17;;;;;;;;;;5031550;28;20218;-81
2023/07/05 06:49:04;;;;;;;2.63;2.25;;;;;;;;;;5031240;28;20242;-80
2023/07/05 06:51:31;;;;;;;3.23;2.57;;;;;;;;;;5031358;28;20226;-81
2023/07/05 06:53:58;;;;;;;4.07;2.40;;;;;;;;;;5031114;28;20237;-80
2023/07/05 06:56:26;;;;;;;2.85;2.40;;;;;;;;;;5031717;28;20207;-82
2023/07/05 06:58:54;;;;;;;3.17;2.55;;;;;;;;;;5030804;28;20258;-80
2023/07/05 07:01:21;;;;;;;2.67;2.47;;;;;;;;;;5031285;28;20206;-80
2023/07/05 07:03:48;;;;;;;2.83;2.42;;;;;;;;;;5030822;28;20234;-80
2023/07/05 07:06:15;;;;;;;3.78;2.80;;;;;;;;;;5031785;28;20218;-81
2023/07/05 07:08:42;;;;;;;4.03;2.60;;;;;;;;;;5030634;28;20320;-81
2023/07/05 07:11:11;;;;;;;3.58;2.38;;;;;;;;;;5031401;28;20210;-81
2023/07/05 07:13:40;;;;;;;2.47;2.28;;;;;;;;;;5030814;28;20234;-80
2023/07/05 07:16:08;;;;;;;3.13;2.78;;;;;;;;;;5031315;28;20210;-83
2023/07/05 07:18:36;;;;;;;3.25;2.70;;;;;;;;;;5030750;28;20244;-82
2023/07/05 07:21:03;;;;;;;4.68;3.35;;;;;;;;;;5031209;28;20211;-82
2023/07/05 07:23:30;;;;;;;3.83;3.10;;;;;;;;;;5030774;28;20234;-83
2023/07/05 07:26:01;;;;;;;3.15;2.67;;;;;;;;;;5031194;28;20207;-83
2023/07/05 07:28:28;;;;;;;3.53;3.22;;;;;;;;;;5030377;28;20265;-81
2023/07/05 07:30:57;;;;;;;3.70;3.22;;;;;;;;;;5031112;28;20611;-82
2023/07/05 07:33:25;;;;;;;3.28;2.97;;;;;;;;;;5030521;28;20724;-81
2023/07/05 07:35:52;;;;;;;28.50;4.47;;;;;;;;;;5031005;28;20244;-82
2023/07/05 07:38:19;;;;;;;3.28;2.97;;;;;;;;;;5030787;28;20234;-82
2023/07/05 07:40:46;;;;;;;4.15;3.25;;;;;;;;;;5030836;28;20217;-82
2023/07/05 07:43:13;;;;;;;3.50;3.20;;;;;;;;;;5030563;28;20231;-81
2023/07/05 07:45:40;;;;;;;4.07;2.80;;;;;;;;;;5031622;28;20222;-82
2023/07/05 07:48:09;;;;;;;3.55;2.90;;;;;;;;;;5033880;28;20230;-82
2023/07/05 07:50:36;;;;;;;4.20;2.67;;;;;;;;;;5034489;28;20205;-82
2023/07/05 07:53:03;;;;;;;4.32;3.42;;;;;;;;;;5033872;28;20257;-83
2023/07/05 07:55:31;;;;;;;4.10;3.05;;;;;;;;;;5034376;28;20294;-82
2023/07/05 07:57:58;;;;;;;3.17;2.78;;;;;;;;;;5033792;28;20222;-82
2023/07/05 08:00:26;;;;;;;3.08;2.80;;;;;;;;;;5034213;28;20297;-81
2023/07/05 08:02:53;;;;;;;2.97;2.60;;;;;;;;;;5033695;28;20210;-80
2023/07/05 08:05:23;;;;;;;3.92;2.58;;;;;;;;;;5034459;28;20211;-82
2023/07/05 08:07:50;;;;;;;3.75;3.00;;;;;;;;;;5033703;28;20570;-82
2023/07/05 08:10:17;;;;;;;3.58;2.60;;;;;;;;;;5034050;28;20223;-81
2023/07/05 08:12:44;;;;;;;4.10;2.60;;;;;;;;;;5033651;28;20226;-82
2023/07/05 08:15:12;;;;;;;3.25;2.47;;;;;;;;;;5034369;28;20210;-82
2023/07/05 08:17:39;;;;;;;3.38;2.42;;;;;;;;;;5033814;28;20214;-82
2023/07/05 08:20:07;;;;;;;4.88;2.67;;;;;;;;;;5033757;28;20276;-81
2023/07/05 08:22:35;;;;;;;5.00;2.97;;;;;;;;;;5033939;28;20302;-81
2023/07/05 08:25:02;;;;;;;3.05;2.65;;;;;;;;;;5033344;28;20241;-82
2023/07/05 08:27:29;;;;;;;5.68;3.30;;;;;;;;;;5033987;28;20217;-81
2023/07/05 08:29:56;;;;;;;4.78;3.08;;;;;;;;;;5033019;28;20746;-81
2023/07/05 08:32:23;;;;;;;7.97;3.05;;;;;;;;;;5033780;28;20226;-81
2023/07/05 08:34:50;;;;;;;5.68;2.92;;;;;;;;;;5033240;28;20237;-81
2023/07/05 08:37:18;;;;;;;4.82;2.70;;;;;;;;;;5033644;28;20210;-80
2023/07/05 08:39:46;;;;;;;3.10;2.80;;;;;;;;;;5032874;28;20300;-81
2023/07/05 08:42:22;;;;;;;3.85;2.67;;;;;;;;;;5033541;28;20203;-81
2023/07/05 08:44:53;;;;;;;3.92;2.33;;;;;;;;;;5032489;28;20245;-80
2023/07/05 08:47:23;;;;;;;4.72;2.83;;;;;;;;;;5033349;28;20213;-80
2023/07/05 08:49:51;;;;;;;5.32;2.78;;;;;;;;;;5032780;28;20242;-81
2023/07/05 08:52:23;;;;;;;3.38;2.55;;;;;;;;;;5033377;28;20237;-82
2023/07/05 08:54:53;;;;;;;2.45;2.25;;;;;;;;;;5032797;28;20242;-83
2023/07/05 08:57:23;;;;;;;3.13;2.47;;;;;;;;;;5033078;28;20211;-82
2023/07/05 08:59:54;;;;;;;3.03;1.85;;;;;;;;;;5032362;28;20238;-81
2023/07/05 09:02:22;;;;;;;2.83;2.22;;;;;;;;;;5033205;28;20581;-81
2023/07/05 09:04:49;;;;;;;6.22;2.70;;;;;;;;;;5032896;28;20706;-81
2023/07/05 09:07:22;;;;;;;4.85;3.42;;;;;;;;;;5033307;28;20210;-80
2023/07/05 09:09:55;;;;;;;6.22;3.53;;;;;;;;;;5032411;28;20248;-81
2023/07/05 09:12:24;;;;;;;4.57;2.85;;;;;;;;;;5033211;28;20238;-82
2023/07/05 09:14:57;;;;;;;3.15;2.78;;;;;;;;;;5032195;28;20245;-81
2023/07/05 09:17:32;;;;;;;3.88;2.95;;;;;;;;;;5032977;28;20191;-82
2023/07/05 09:20:04;;;;;;;3.78;2.90;;;;;;;;;;5032627;28;20242;-82
2023/07/05 09:22:34;;;;;;;4.50;3.05;;;;;;;;;;5033056;28;20199;-82
2023/07/05 09:25:03;;;;;;;4.32;2.47;;;;;;;;;;5032312;28;20258;-82
2023/07/05 09:27:32;;;;;;;6.63;3.13;;;;;;;;;;5032839;28;20669;-81
2023/07/05 09:30:01;;;;;;;5.25;2.90;;;;;;;;;;5031956;28;20234;-82
2023/07/05 09:32:30;;;;;;;3.28;2.83;;;;;;;;;;5032786;28;20241;-81
2023/07/05 09:34:58;;;;;;;4.13;3.00;;;;;;;;;;5031914;28;20257;-81
2023/07/05 09:37:27;;;;;;;3.10;2.50;;;;;;;;;;5032406;28;20214;-82
2023/07/05 09:40:06;;;;;;;3.72;3.00;;;;;;;;;;5056450;22;20230;-83
2023/07/05 09:42:36;;;;;;;3.60;2.83;;;;;;;;;;5032889;28;20229;-82
2023/07/05 09:45:03;;;;;;;4.15;3.13;;;;;;;;;;5024135;28;20231;-82
2023/07/05 09:47:30;;;;;;;5.70;2.63;;;;;;;;;;5032336;28;20214;-83
2023/07/05 09:49:57;;;;;;;3.17;2.88;;;;;;;;;;5028464;28;20314;-83
2023/07/05 09:52:25;;;;;;;3.38;2.50;;;;;;;;;;5020597;28;20247;-83
2023/07/05 09:54:54;;;;;;;3.38;2.55;;;;;;;;;;5022283;28;20242;-81
2023/07/05 09:57:25;;;;;;;2.75;2.47;;;;;;;;;;5023903;28;20249;-81
2023/07/05 09:59:52;;;;;;;2.40;2.20;;;;;;;;;;5021200;28;20234;-83
2023/07/05 10:02:22;;;;;;;33.65;3.85;;;;;;;;;;5020455;28;20685;-82
2023/07/05 10:04:50;;;;;;;2.97;2.20;;;;;;;;;;5021794;28;20234;-82
2023/07/05 10:07:18;;;;;;;16.33;2.63;;;;;;;;;;5023648;28;20687;-83
2023/07/05 10:09:55;;;;;;;4.68;2.33;;;;;;;;;;5021237;28;20231;-82
2023/07/05 10:12:24;;;;;;;2.92;2.03;;;;;;;;;;5020504;28;20312;-83
2023/07/05 10:14:56;;;;;;;3.40;2.08;;;;;;;;;;5021579;28;20234;-83
2023/07/05 10:17:24;;;;;;;2.70;2.10;;;;;;;;;;5023767;28;20622;-82
2023/07/05 10:19:52;;;;;;;3.13;2.00;;;;;;;;;;5020692;28;20234;-82
2023/07/05 10:22:25;;;;;;;4.07;2.00;;;;;;;;;;5020169;28;20262;-83
2023/07/05 10:24:53;;;;;;;2.40;2.20;;;;;;;;;;5021757;28;20234;-82
2023/07/05 10:27:23;;;;;;;2.63;2.13;;;;;;;;;;5023460;28;20202;-83
2023/07/05 10:29:50;;;;;;;3.15;2.28;;;;;;;;;;5020981;28;20241;-83
2023/07/05 10:32:22;;;;;;;3.45;2.30;;;;;;;;;;5020481;28;20706;-83
2023/07/05 10:34:55;;;;;;;3.47;2.20;;;;;;;;;;5019409;28;20674;-82
2023/07/05 10:37:27;;;;;;;2.10;1.90;;;;;;;;;;5019879;28;20710;-82
2023/07/05 10:39:55;;;;;;;1.90;1.80;;;;;;;;;;5021299;28;20599;-83
2023/07/05 10:42:22;;;;;;;5.32;1.98;;;;;;;;;;5019355;28;20230;-83
2023/07/05 10:44:49;;;;;;;2.78;2.25;;;;;;;;;;5020844;28;20238;-82
2023/07/05 10:47:17;;;;;;;2.63;1.90;;;;;;;;;;5023267;28;20209;-82
2023/07/05 10:49:47;;;;;;;3.30;1.88;;;;;;;;;;5021707;28;20308;-81
2023/07/05 10:52:16;;;;;;;3.95;1.90;;;;;;;;;;5020026;28;20203;-81
2023/07/05 10:54:46;;;;;;;5.38;1.70;;;;;;;;;;5020281;28;20696;-81
2023/07/05 10:57:16;;;;;;;2.25;1.50;;;;;;;;;;5023213;28;20213;-81
2023/07/05 10:59:44;;;;;;;1.42;1.27;;;;;;;;;;5022496;28;20234;-82
2023/07/05 11:02:29;;;;;;;4.05;1.38;;;;;;;;;;5023468;28;20289;-82
2023/07/05 11:04:59;;;;;;;1.40;1.30;;;;;;;;;;5022533;28;20227;-80
2023/07/05 11:07:26;;;;;;;16.85;2.28;;;;;;;;;;5023207;28;20210;-81
2023/07/05 11:09:53;;;;;;;1.58;1.48;;;;;;;;;;5020340;28;20234;-81
2023/07/05 11:12:22;;;;;;;1.50;1.40;;;;;;;;;;5019742;28;20216;-82
2023/07/05 11:14:50;;;;;;;1.20;1.10;;;;;;;;;;5020516;28;20227;-82
2023/07/05 11:17:23;;;;;;;1.83;1.38;;;;;;;;;;5023094;28;20202;-82
2023/07/05 11:19:50;;;;;;;2.45;1.75;;;;;;;;;;5022108;28;20242;-81
2023/07/05 11:22:35;;;;;;;1.85;1.58;;;;;;;;;;5023682;28;20203;-81
2023/07/05 11:25:04;;;;;;;2.78;1.40;;;;;;;;;;4995293;28;20231;-83
2023/07/05 11:27:58;;;;;;;2.45;1.55;;;;;;;;;;4995670;28;20204;-83
2023/07/05 11:30:41;;;;;;;8.60;1.95;;;;;;;;;;4952194;28;20740;-80
2023/07/05 11:33:16;;;;;;;6.55;1.80;;;;;;;;;;4995915;28;20239;-81
2023/07/05 11:35:44;;;;;;;1.50;1.30;;;;;;;;;;5004702;28;20222;-83
2023/07/05 11:38:11;;;;;;;3.80;1.25;;;;;;;;;;5011507;28;20239;-82
2023/07/05 11:41:00;;;;;;;1.38;1.10;;;;;;;;;;5007378;28;20235;-82
2023/07/05 11:43:33;;;;;;;4.13;1.60;;;;;;;;;;4997886;28;20231;-82
2023/07/05 11:46:00;;;;;;;1.65;1.02;;;;;;;;;;5003520;28;20726;-82
2023/07/05 11:48:41;;;;;;;20.77;3.50;;;;;;;;;;5002582;28;20700;-83
2023/07/05 11:51:13;;;;;;;5.68;1.55;;;;;;;;;;5007330;28;20226;-83
2023/07/05 11:53:41;;;;;;;10.93;1.35;;;;;;;;;;4998518;28;20240;-83
2023/07/05 11:56:10;;;;;;;1.23;1.15;;;;;;;;;;5007178;28;20218;-83
2023/07/05 11:58:39;;;;;;;3.50;1.38;;;;;;;;;;4999085;28;20262;-83
2023/07/05 12:01:07;;;;;;;2.17;1.42;;;;;;;;;;5001777;28;20243;-83
2023/07/05 12:03:37;;;;;;;4.63;1.60;;;;;;;;;;5028568;28;20235;-82
2023/07/05 12:06:07;;;;;;;1.67;1.52;;;;;;;;;;5025714;28;20200;-83
2023/07/05 12:08:36;;;;;;;4.22;1.30;;;;;;;;;;5023757;28;20231;-83
2023/07/05 12:11:03;;;;;;;2.33;1.48;;;;;;;;;;5027073;28;20238;-82
2023/07/05 12:13:32;;;;;;;34.25;4.95;;;;;;;;;;5026464;28;20246;-81
2023/07/05 12:16:02;;;;;;;4.45;2.67;;;;;;;;;;5024332;28;20184;-81
2023/07/05 12:18:30;;;;;;;1.42;1.30;;;;;;;;;;5007935;28;20258;-83
2023/07/05 12:20:58;;;;;;;1.77;1.27;;;;;;;;;;5004720;28;20250;-81
2023/07/05 12:23:28;;;;;;;1.30;1.20;;;;;;;;;;5005671;28;20611;-80
2023/07/05 12:25:57;;;;;;;2.85;1.50;;;;;;;;;;5004170;28;20812;-83
2023/07/05 12:28:25;;;;;;;2.60;1.58;;;;;;;;;;4999634;28;20227;-80
2023/07/05 12:30:56;;;;;;;1.60;1.50;;;;;;;;;;5004485;28;20227;-81
2023/07/05 12:33:26;;;;;;;1.55;1.30;;;;;;;;;;5002234;28;20232;-81
2023/07/05 12:36:06;;;;;;;2.70;1.48;;;;;;;;;;5003834;28;20203;-82
2023/07/05 12:38:33;;;;;;;1.65;1.48;;;;;;;;;;5006610;28;20235;-80
2023/07/05 12:41:02;;;;;;;2.08;1.42;;;;;;;;;;5004370;28;20239;-82
2023/07/05 12:43:30;;;;;;;3.00;1.02;;;;;;;;;;5005483;28;20259;-80
2023/07/05 12:46:06;;;;;;;2.15;1.40;;;;;;;;;;4997480;28;20212;-81
2023/07/05 12:48:35;;;;;;;2.95;1.63;;;;;;;;;;5004903;28;20237;-82
2023/07/05 12:51:02;;;;;;;2.35;1.60;;;;;;;;;;5003208;28;20273;-80
2023/07/05 12:53:29;;;;;;;1.52;1.40;;;;;;;;;;5001471;28;20228;-81
2023/07/05 12:55:58;;;;;;;2.50;1.75;;;;;;;;;;5003030;28;20200;-81
2023/07/05 12:58:27;;;;;;;3.80;1.50;;;;;;;;;;5004546;28;20231;-81
2023/07/05 13:00:56;;;;;;;1.50;1.38;;;;;;;;;;4996750;28;20232;-80
2023/07/05 13:03:24;;;;;;;9.05;1.65;;;;;;;;;;5004832;28;20251;-79
2023/07/05 13:05:53;;;;;;;1.83;1.65;;;;;;;;;;5004333;28;20700;-80
2023/07/05 13:08:20;;;;;;;3.05;1.50;;;;;;;;;;5001181;28;20290;-80
2023/07/05 13:10:47;;;;;;;12.52;2.40;;;;;;;;;;5001950;28;20228;-80
2023/07/05 13:13:25;;;;;;;1.20;1.20;;;;;;;;;;5004435;28;20239;-81
2023/07/05 13:15:52;;;;;;;1.95;1.52;;;;;;;;;;5004110;28;20207;-81
2023/07/05 13:18:27;;;;;;;7.15;1.80;;;;;;;;;;5000952;28;20710;-80
2023/07/05 13:21:12;;;;;;;3.83;1.73;;;;;;;;;;5002753;28;20231;-79
2023/07/05 13:23:44;;;;;;;3.17;1.40;;;;;;;;;;5005678;28;20578;-80
2023/07/05 13:26:19;;;;;;;2.40;1.30;;;;;;;;;;5009722;28;20239;-85
2023/07/05 13:28:46;;;;;;;2.92;1.70;;;;;;;;;;5001844;28;20234;-89
2023/07/05 13:31:19;;;;;;;2.90;1.73;;;;;;;;;;5005868;28;20266;-88
2023/07/05 13:33:46;;;;;;;2.72;1.88;;;;;;;;;;5005322;28;20613;-88
2023/07/05 13:36:14;;;;;;;4.18;1.70;;;;;;;;;;5005747;28;20211;-88
2023/07/05 13:38:43;;;;;;;2.95;1.63;;;;;;;;;;5005087;28;20235;-87
2023/07/05 13:41:10;;;;;;;3.47;1.33;;;;;;;;;;5002205;28;20236;-88
2023/07/05 13:43:37;;;;;;;22.13;3.03;;;;;;;;;;5001054;28;20228;-87
2023/07/05 13:46:04;;;;;;;3.72;1.70;;;;;;;;;;5001936;28;20701;-88
2023/07/05 13:48:32;;;;;;;1.50;1.40;;;;;;;;;;5001615;28;20234;-89
2023/07/05 13:50:59;;;;;;;2.75;1.55;;;;;;;;;;5004010;28;20228;-89
2023/07/05 13:53:29;;;;;;;4.10;1.60;;;;;;;;;;5010105;28;20231;-84
2023/07/05 13:55:56;;;;;;;5.10;1.33;;;;;;;;;;5005420;28;20207;-88
2023/07/05 13:58:24;;;;;;;3.47;1.42;;;;;;;;;;5002470;28;20255;-87
2023/07/05 14:00:51;;;;;;;2.22;1.58;;;;;;;;;;5005649;28;20662;-87
2023/07/05 14:03:18;;;;;;;3.33;1.80;;;;;;;;;;5001219;28;20227;-88
2023/07/05 14:05:45;;;;;;;4.75;1.50;;;;;;;;;;5001995;28;20580;-89
2023/07/05 14:08:15;;;;;;;5.30;1.58;;;;;;;;;;5004453;28;20223;-87
2023/07/05 14:10:44;;;;;;;2.05;1.30;;;;;;;;;;5004954;28;20231;-87
2023/07/05 14:13:15;;;;;;;2.92;1.50;;;;;;;;;;5001132;28;20236;-87
2023/07/05 14:15:43;;;;;;;2.05;1.40;;;;;;;;;;5001746;28;20239;-85
2023/07/05 14:18:14;;;;;;;3.08;1.75;;;;;;;;;;5009399;28;20254;-86
2023/07/05 14:20:42;;;;;;;2.88;1.88;;;;;;;;;;5001397;28;20236;-89
2023/07/05 14:23:12;;;;;;;4.68;1.80;;;;;;;;;;5000578;28;20259;-87
2023/07/05 14:25:42;;;;;;;3.05;1.40;;;;;;;;;;4999476;28;20658;-86
2023/07/05 14:28:10;;;;;;;2.35;1.58;;;;;;;;;;4993201;28;20236;-85
2023/07/05 14:30:38;;;;;;;2.97;1.55;;;;;;;;;;5001604;28;20718;-88
2023/07/05 14:33:05;;;;;;;4.40;1.70;;;;;;;;;;5002193;28;20705;-88
2023/07/05 14:35:33;;;;;;;3.13;1.88;;;;;;;;;;4998641;28;20875;-88
2023/07/05 14:38:00;;;;;;;4.00;1.70;;;;;;;;;;5001183;28;20298;-88
2023/07/05 14:40:28;;;;;;;1.73;1.60;;;;;;;;;;5004138;28;20235;-86
2023/07/05 14:42:55;;;;;;;4.13;1.63;;;;;;;;;;5003175;28;20249;-89
2023/07/05 14:45:25;;;;;;;3.58;1.75;;;;;;;;;;5001419;28;20577;-88
2023/07/05 14:47:52;;;;;;;1.77;1.48;;;;;;;;;;5000403;28;20220;-88
2023/07/05 14:50:20;;;;;;;4.60;2.00;;;;;;;;;;5004520;28;20219;-88
2023/07/05 14:52:47;;;;;;;8.88;2.25;;;;;;;;;;5003682;28;20200;-88